Time;durP1;ratioP1;P1;durP2;ratioP2;P2;SDS_P1;SDS_P2;PMS_P1;PMS_P2;Temp;Humidity;BMP_temperature;BMP_pressure;BME280_temperature;BME280_humidity;BME280_pressure;Samples;Min_cycle;Max_cycle;Signal;HPM_P1;HPM_P2
2022/05/02 00:00:10;;;;;;;12.65;8.23;;;6.30;99.90;;;;;;5073691;28;20059;-72
2022/05/02 00:02:37;;;;;;;13.20;8.48;;;6.20;99.90;;;;;;5071711;28;20144;-72
2022/05/02 00:05:03;;;;;;;10.30;7.72;;;6.20;99.90;;;;;;5091520;28;20055;-72
2022/05/02 00:07:29;;;;;;;11.20;7.15;;;6.10;99.90;;;;;;5087384;28;20039;-72
2022/05/02 00:09:55;;;;;;;11.93;8.35;;;6.10;99.90;;;;;;5073299;28;20036;-72
2022/05/02 00:12:20;;;;;;;9.93;7.43;;;6.10;99.90;;;;;;5093570;28;20051;-72
2022/05/02 00:14:46;;;;;;;12.48;7.68;;;6.00;99.90;;;;;;5072851;28;20059;-72
2022/05/02 00:17:12;;;;;;;11.02;8.85;;;6.00;99.90;;;;;;5078167;28;20047;-72
2022/05/02 00:19:37;;;;;;;10.13;8.00;;;6.00;99.90;;;;;;5092215;28;20075;-73
2022/05/02 00:22:03;;;;;;;13.90;8.93;;;5.90;99.90;;;;;;5089875;28;20052;-72
2022/05/02 00:24:29;;;;;;;12.48;9.73;;;5.90;99.90;;;;;;5071560;28;20055;-72
2022/05/02 00:26:56;;;;;;;12.05;8.88;;;5.90;99.90;;;;;;5091574;28;20040;-72
2022/05/02 00:29:22;;;;;;;11.82;8.85;;;5.80;99.90;;;;;;5091545;28;20081;-72
2022/05/02 00:31:47;;;;;;;14.57;9.20;;;5.80;99.90;;;;;;5055373;28;20036;-72
2022/05/02 00:34:13;;;;;;;15.27;10.38;;;5.80;99.90;;;;;;5089975;28;20036;-72
2022/05/02 00:36:39;;;;;;;12.18;9.15;;;5.70;99.90;;;;;;5089576;28;20347;-72
2022/05/02 00:39:05;;;;;;;13.88;9.77;;;5.70;99.90;;;;;;5090414;28;20044;-72
2022/05/02 00:41:31;;;;;;;12.02;8.57;;;5.70;99.90;;;;;;5069792;28;20343;-72
2022/05/02 00:43:57;;;;;;;10.77;8.05;;;5.70;99.90;;;;;;5094580;28;20212;-72
2022/05/02 00:46:24;;;;;;;13.20;8.48;;;5.60;99.90;;;;;;5073296;28;20051;-72
2022/05/02 00:48:52;;;;;;;16.08;10.13;;;5.60;99.90;;;;;;5087687;28;20698;-72
2022/05/02 00:51:18;;;;;;;14.93;9.40;;;5.60;99.90;;;;;;5091378;28;20491;-72
2022/05/02 00:53:50;;;;;;;10.57;8.85;;;5.60;99.90;;;;;;5067936;28;20411;-72
2022/05/02 00:56:17;;;;;;;12.05;9.32;;;5.50;99.90;;;;;;5087942;28;20043;-72
2022/05/02 00:58:44;;;;;;;13.25;10.32;;;5.50;99.90;;;;;;5075376;28;20048;-72
2022/05/02 01:01:09;;;;;;;13.05;9.77;;;5.50;99.90;;;;;;5071456;28;20039;-72
2022/05/02 01:03:35;;;;;;;15.00;10.38;;;5.50;99.90;;;;;;5089512;28;20688;-72
2022/05/02 01:08:47;;;;;;;13.85;9.95;;;5.50;99.90;;;;;;5072456;28;20040;-72
2022/05/02 01:11:13;;;;;;;13.77;9.25;;;5.50;99.90;;;;;;5092619;28;20040;-72
2022/05/02 01:13:41;;;;;;;13.57;10.43;;;5.50;99.90;;;;;;5086525;28;20038;-72
2022/05/02 01:16:07;;;;;;;16.27;10.73;;;5.50;99.90;;;;;;5095751;28;20044;-72
2022/05/02 01:18:33;;;;;;;16.10;8.98;;;5.50;99.90;;;;;;5092757;28;20128;-72
2022/05/02 01:20:59;;;;;;;14.15;9.90;;;5.50;99.90;;;;;;5067914;28;20430;-72
2022/05/02 01:23:24;;;;;;;14.50;9.95;;;5.40;99.90;;;;;;5069452;28;20135;-72
2022/05/02 01:25:50;;;;;;;13.48;9.40;;;5.40;99.90;;;;;;5073967;28;20044;-72
2022/05/02 01:28:15;;;;;;;13.75;9.13;;;5.40;99.90;;;;;;5070413;28;20071;-72
2022/05/02 01:30:41;;;;;;;12.13;8.70;;;5.40;99.90;;;;;;5072683;28;20058;-72
2022/05/02 01:33:09;;;;;;;13.07;8.82;;;5.40;99.90;;;;;;5090500;28;20043;-72
2022/05/02 01:35:35;;;;;;;11.13;8.07;;;5.30;99.90;;;;;;5073881;28;20485;-72
2022/05/02 01:38:01;;;;;;;11.43;8.70;;;5.30;99.90;;;;;;5086994;28;20160;-72
2022/05/02 01:40:26;;;;;;;12.23;8.90;;;5.30;99.90;;;;;;5090939;28;20032;-72
2022/05/02 01:42:52;;;;;;;12.77;7.45;;;5.30;99.90;;;;;;5086328;28;20047;-72
2022/05/02 01:45:17;;;;;;;10.70;8.00;;;5.20;99.90;;;;;;5072456;28;20412;-72
2022/05/02 01:47:43;;;;;;;11.73;7.45;;;5.20;99.90;;;;;;5087508;28;20040;-72
2022/05/02 01:50:09;;;;;;;11.10;7.07;;;5.20;99.90;;;;;;5088187;28;20502;-73
2022/05/02 01:52:35;;;;;;;10.00;7.97;;;5.10;99.90;;;;;;5071570;28;20446;-72
2022/05/02 01:55:00;;;;;;;13.38;7.75;;;5.10;99.90;;;;;;5089287;28;20040;-72
2022/05/02 01:57:26;;;;;;;10.23;8.02;;;5.10;99.90;;;;;;5089853;28;20052;-71
2022/05/02 01:59:52;;;;;;;12.18;8.20;;;5.10;99.90;;;;;;5091029;28;20036;-71
2022/05/02 02:02:17;;;;;;;12.98;8.55;;;5.10;99.90;;;;;;5088459;28;20063;-72
2022/05/02 02:07:27;;;;;;;10.57;7.90;;;5.00;99.90;;;;;;5085583;28;20060;-71
2022/05/02 02:09:52;;;;;;;15.13;8.63;;;5.00;99.90;;;;;;5089683;28;20093;-73
2022/05/02 02:12:18;;;;;;;13.20;9.20;;;5.00;99.90;;;;;;5090358;28;20111;-71
2022/05/02 02:14:44;;;;;;;14.77;9.35;;;5.00;99.90;;;;;;5088767;28;20036;-71
2022/05/02 02:17:09;;;;;;;12.13;8.52;;;5.00;99.90;;;;;;5066157;28;20039;-71
2022/05/02 02:19:35;;;;;;;10.90;8.07;;;5.00;99.90;;;;;;5093067;28;20071;-71
2022/05/02 02:22:16;;;;;;;15.55;8.20;;;5.00;99.90;;;;;;5071460;28;20511;-71
2022/05/02 02:24:46;;;;;;;9.75;7.13;;;4.90;99.90;;;;;;5071454;28;20048;-71
2022/05/02 02:27:12;;;;;;;12.98;8.73;;;4.90;99.90;;;;;;5085732;28;20037;-71
2022/05/02 02:29:38;;;;;;;10.40;8.07;;;4.90;99.90;;;;;;5071583;28;20457;-71
2022/05/02 02:32:04;;;;;;;11.23;8.55;;;4.90;99.90;;;;;;5091083;28;20036;-71
2022/05/02 02:34:30;;;;;;;13.00;7.95;;;4.90;99.90;;;;;;5069087;28;20481;-71
2022/05/02 02:36:56;;;;;;;11.07;7.63;;;4.80;99.90;;;;;;5089374;28;20131;-71
2022/05/02 02:39:22;;;;;;;9.43;7.07;;;4.80;99.90;;;;;;5077208;28;20035;-71
2022/05/02 02:41:48;;;;;;;9.63;7.18;;;4.70;99.90;;;;;;5092531;28;20450;-71
2022/05/02 02:44:13;;;;;;;11.77;7.65;;;4.70;99.90;;;;;;5073696;28;20039;-71
2022/05/02 02:46:39;;;;;;;11.77;7.10;;;4.60;99.90;;;;;;5074151;28;20048;-71
2022/05/02 02:49:04;;;;;;;11.05;6.45;;;4.60;99.90;;;;;;5070493;28;20060;-71
2022/05/02 02:51:30;;;;;;;11.70;6.80;;;4.60;99.90;;;;;;5073167;28;20035;-71
2022/05/02 02:53:56;;;;;;;10.27;7.82;;;4.60;99.90;;;;;;5074539;28;20056;-71
2022/05/02 02:56:22;;;;;;;11.07;7.90;;;4.60;99.90;;;;;;5094184;28;20043;-71
2022/05/02 02:58:48;;;;;;;12.65;8.88;;;4.60;99.90;;;;;;5088757;28;20072;-71
2022/05/02 03:01:14;;;;;;;12.10;8.60;;;4.50;99.90;;;;;;5091335;28;20047;-72
2022/05/02 03:03:40;;;;;;;12.75;8.68;;;4.60;99.90;;;;;;5091474;28;20035;-71
2022/05/02 03:06:06;;;;;;;12.13;8.05;;;4.60;99.90;;;;;;5092108;28;20100;-70
2022/05/02 03:08:34;;;;;;;11.52;8.43;;;4.50;99.90;;;;;;5092740;28;20390;-71
2022/05/02 03:11:00;;;;;;;12.90;8.80;;;4.60;99.90;;;;;;5089139;28;20040;-70
2022/05/02 03:13:26;;;;;;;13.32;9.98;;;4.50;99.90;;;;;;5090585;28;20032;-71
2022/05/02 03:15:51;;;;;;;16.02;9.70;;;4.50;99.90;;;;;;5091441;28;20043;-71
2022/05/02 03:18:17;;;;;;;12.00;8.98;;;4.50;99.90;;;;;;5075383;28;20432;-71
2022/05/02 03:20:43;;;;;;;10.75;8.40;;;4.60;99.90;;;;;;5093454;28;20044;-71
2022/05/02 03:23:09;;;;;;;15.52;9.77;;;4.50;99.90;;;;;;5074691;28;20400;-71
2022/05/02 03:25:34;;;;;;;12.60;8.50;;;4.50;99.90;;;;;;5093479;28;20051;-71
2022/05/02 03:28:00;;;;;;;15.88;10.65;;;4.50;99.90;;;;;;5090140;28;20036;-71
2022/05/02 03:30:25;;;;;;;14.95;9.73;;;4.50;99.90;;;;;;5091983;28;20036;-71
2022/05/02 03:32:51;;;;;;;14.65;10.63;;;4.60;99.90;;;;;;5072608;28;20047;-71
2022/05/02 03:35:16;;;;;;;14.90;11.20;;;4.60;99.90;;;;;;5090302;28;20529;-71
2022/05/02 03:37:42;;;;;;;17.20;12.02;;;4.60;99.90;;;;;;5095105;28;20127;-70
2022/05/02 03:40:08;;;;;;;19.30;12.00;;;4.60;99.90;;;;;;5090780;28;20101;-70
2022/05/02 03:42:35;;;;;;;19.42;12.88;;;4.60;99.90;;;;;;5059984;28;20484;-70
2022/05/02 03:45:01;;;;;;;18.38;12.85;;;4.70;99.90;;;;;;5073285;28;20052;-70
2022/05/02 03:47:27;;;;;;;25.88;13.65;;;4.80;99.90;;;;;;5090444;28;20054;-70
2022/05/02 03:49:52;;;;;;;21.20;12.75;;;4.80;99.90;;;;;;5075360;28;20074;-70
2022/05/02 03:52:18;;;;;;;20.67;13.90;;;4.80;99.90;;;;;;5074047;28;20083;-70
2022/05/02 03:54:44;;;;;;;23.30;13.23;;;4.80;99.90;;;;;;5075777;28;20111;-71
2022/05/02 03:57:09;;;;;;;19.63;13.25;;;4.80;99.90;;;;;;5089737;28;20044;-72
2022/05/02 03:59:35;;;;;;;20.67;13.60;;;4.80;99.90;;;;;;5071941;28;20487;-71
2022/05/02 04:02:01;;;;;;;22.98;13.45;;;4.80;99.90;;;;;;5091632;28;20047;-72
2022/05/02 04:04:26;;;;;;;20.25;13.75;;;4.80;99.90;;;;;;5074406;28;20059;-72
2022/05/02 04:06:52;;;;;;;20.63;12.98;;;4.90;99.90;;;;;;5090844;28;20132;-72
2022/05/02 04:09:17;;;;;;;19.10;13.40;;;4.90;99.90;;;;;;5071594;28;20120;-71
2022/05/02 04:11:43;;;;;;;18.38;12.93;;;4.80;99.90;;;;;;5090813;28;20043;-71
2022/05/02 04:14:09;;;;;;;18.25;12.55;;;4.90;99.90;;;;;;5073676;28;20040;-71
2022/05/02 04:16:35;;;;;;;18.70;13.48;;;4.80;99.90;;;;;;5087474;28;20078;-71
2022/05/02 04:19:00;;;;;;;20.63;14.48;;;4.80;99.90;;;;;;5096185;28;20040;-71
2022/05/02 04:21:26;;;;;;;22.38;14.60;;;4.90;99.90;;;;;;5091220;28;20040;-71
2022/05/02 04:23:51;;;;;;;22.85;15.52;;;4.80;99.90;;;;;;5091424;28;20039;-71
2022/05/02 04:26:17;;;;;;;21.42;15.32;;;4.90;99.90;;;;;;5092959;28;20039;-71
2022/05/02 04:28:42;;;;;;;21.52;14.73;;;4.90;99.90;;;;;;5086768;28;20045;-71
2022/05/02 04:31:08;;;;;;;22.50;14.70;;;4.90;99.90;;;;;;5091222;28;20039;-71
2022/05/02 04:33:34;;;;;;;22.60;14.82;;;5.00;99.90;;;;;;5067585;28;20401;-71
2022/05/02 04:35:59;;;;;;;23.80;14.75;;;4.90;99.90;;;;;;5091499;28;20055;-71
2022/05/02 04:38:28;;;;;;;19.48;14.27;;;5.00;99.90;;;;;;5069626;28;20071;-71
2022/05/02 04:40:53;;;;;;;21.80;13.90;;;5.00;99.90;;;;;;5091587;28;20036;-71
2022/05/02 04:43:19;;;;;;;22.75;14.68;;;5.10;99.90;;;;;;5073843;28;20403;-71
2022/05/02 04:45:45;;;;;;;21.13;14.27;;;5.10;99.90;;;;;;5092522;28;20055;-71
2022/05/02 04:48:10;;;;;;;21.10;13.60;;;5.10;99.90;;;;;;5071674;28;20511;-70
2022/05/02 04:50:36;;;;;;;21.20;14.13;;;5.20;99.90;;;;;;5088668;28;20039;-72
2022/05/02 04:53:01;;;;;;;20.35;14.07;;;5.30;99.90;;;;;;5090133;28;20625;-71
2022/05/02 04:55:27;;;;;;;20.70;13.90;;;5.30;99.90;;;;;;5093030;28;20123;-71
2022/05/02 04:57:52;;;;;;;19.30;13.43;;;5.40;99.90;;;;;;5074115;28;20039;-71
2022/05/02 05:00:18;;;;;;;20.33;13.43;;;5.40;99.90;;;;;;5088772;28;20504;-71
2022/05/02 05:02:44;;;;;;;19.55;12.95;;;5.50;99.90;;;;;;5089734;28;20177;-71
2022/05/02 05:05:13;;;;;;;19.70;13.57;;;5.60;99.90;;;;;;5072248;28;20058;-72
2022/05/02 05:07:39;;;;;;;20.15;13.38;;;5.60;99.90;;;;;;5071050;28;20272;-71
2022/05/02 05:10:06;;;;;;;19.63;12.50;;;5.70;99.90;;;;;;5088084;28;20036;-71
2022/05/02 05:12:55;;;;;;;17.88;12.85;;;5.80;99.90;;;;;;5070695;28;20047;-71
2022/05/02 05:18:35;;;;;;;17.48;13.68;;;6.20;99.90;;;;;;5092482;28;20122;-71
2022/05/02 05:21:25;;;;;;;17.77;12.35;;;6.30;99.90;;;;;;5089559;28;20105;-71
2022/05/02 05:24:30;;;;;;;17.05;12.65;;;6.40;99.90;;;;;;5050491;28;20049;-71
2022/05/02 05:27:10;;;;;;;18.58;13.18;;;6.60;99.90;;;;;;5051248;28;20384;-71
2022/05/02 05:29:56;;;;;;;17.70;12.13;;;6.70;99.90;;;;;;5067034;28;20120;-71
2022/05/02 05:32:51;;;;;;;18.27;12.77;;;6.90;99.90;;;;;;5067792;28;20039;-71
2022/05/02 05:35:44;;;;;;;19.67;12.43;;;7.00;99.90;;;;;;5051426;28;20037;-71
2022/05/02 05:38:15;;;;;;;15.90;12.40;;;7.20;99.90;;;;;;5055924;28;20059;-71
2022/05/02 05:40:46;;;;;;;15.48;11.75;;;7.30;99.90;;;;;;5051156;28;20051;-71
2022/05/02 05:43:31;;;;;;;16.02;10.70;;;7.40;99.90;;;;;;5045501;28;20036;-71
2022/05/02 05:46:28;;;;;;;14.27;11.25;;;7.50;99.90;;;;;;5051749;28;20078;-71
2022/05/02 05:49:16;;;;;;;15.82;11.13;;;7.60;99.90;;;;;;5072904;28;20526;-72
2022/05/02 05:51:42;;;;;;;13.82;10.65;;;7.70;99.90;;;;;;5047152;28;20530;-73
2022/05/02 05:54:55;;;;;;;16.05;11.30;;;7.80;99.90;;;;;;5050862;28;20056;-72
2022/05/02 05:57:38;;;;;;;14.63;11.07;;;7.90;99.90;;;;;;5068547;28;20476;-72
2022/05/02 06:00:07;;;;;;;14.15;11.82;;;8.10;99.90;;;;;;5051595;28;20574;-72
2022/05/02 06:02:57;;;;;;;16.55;11.52;;;8.20;99.90;;;;;;5069485;28;20480;-72
2022/05/02 06:05:23;;;;;;;14.88;11.82;;;8.20;99.90;;;;;;5070812;28;20438;-73
2022/05/02 06:07:51;;;;;;;16.05;11.77;;;8.40;99.90;;;;;;5052039;28;20032;-72
2022/05/02 06:10:18;;;;;;;15.95;11.27;;;8.50;99.90;;;;;;5066275;28;20075;-72
2022/05/02 06:12:46;;;;;;;19.10;11.10;;;8.70;99.90;;;;;;5053071;28;20036;-73
2022/05/02 06:20:46;;;;;;;12.73;10.02;;;9.20;99.90;;;;;;5074378;28;20051;-72
2022/05/02 06:23:16;;;;;;;13.13;10.30;;;9.30;99.90;;;;;;5087442;28;20051;-72
2022/05/02 06:25:47;;;;;;;14.13;10.55;;;9.40;99.90;;;;;;5093079;28;20056;-73
2022/05/02 06:28:15;;;;;;;14.65;10.35;;;9.60;99.90;;;;;;5071020;28;20079;-72
2022/05/02 06:30:42;;;;;;;15.13;9.93;;;9.80;99.90;;;;;;5072347;28;20048;-70
2022/05/02 06:33:12;;;;;;;13.52;10.23;;;10.00;99.90;;;;;;5077443;28;20075;-70
2022/05/02 06:36:00;;;;;;;14.20;10.23;;;10.20;99.90;;;;;;5076657;28;20051;-70
2022/05/02 06:38:45;;;;;;;12.85;8.35;;;10.30;99.90;;;;;;5072175;28;20055;-72
2022/05/02 06:41:30;;;;;;;15.30;8.35;;;10.60;99.90;;;;;;5076629;28;20052;-72
2022/05/02 06:44:35;;;;;;;13.70;8.40;;;10.70;99.90;;;;;;5073283;28;20387;-72
2022/05/02 06:47:34;;;;;;;11.60;8.38;;;10.80;99.90;;;;;;5044518;28;20203;-71
2022/05/02 06:50:04;;;;;;;13.13;8.52;;;10.90;99.90;;;;;;5092891;28;20114;-72
2022/05/02 06:52:56;;;;;;;10.65;7.63;;;11.00;99.90;;;;;;5095055;28;20043;-72
2022/05/02 06:55:22;;;;;;;15.38;8.75;;;11.10;99.90;;;;;;5091365;28;20081;-72
2022/05/02 06:57:54;;;;;;;8.70;6.93;;;11.30;99.90;;;;;;5072516;28;20142;-72
2022/05/02 07:00:20;;;;;;;12.73;8.70;;;11.50;99.90;;;;;;5074894;28;20076;-72
2022/05/02 07:03:11;;;;;;;10.80;8.00;;;11.70;99.90;;;;;;5093283;28;20036;-72
2022/05/02 07:05:51;;;;;;;10.27;8.40;;;11.80;99.90;;;;;;5072330;28;20072;-71
2022/05/02 07:08:28;;;;;;;9.90;8.38;;;12.00;99.90;;;;;;5077083;28;20048;-71
2022/05/02 07:11:03;;;;;;;8.70;7.40;;;12.10;99.90;;;;;;5091510;28;20159;-71
2022/05/02 07:13:47;;;;;;;14.43;8.30;;;12.20;99.90;;;;;;5070862;28;20120;-72
2022/05/02 07:16:22;;;;;;;11.68;7.75;;;12.40;99.90;;;;;;5072200;28;20052;-71
2022/05/02 07:18:54;;;;;;;12.38;7.30;;;12.60;99.90;;;;;;5092600;28;20047;-72
2022/05/02 07:21:46;;;;;;;11.35;7.25;;;12.70;99.90;;;;;;5074624;28;20047;-72
2022/05/02 07:24:52;;;;;;;11.00;7.68;;;12.70;99.90;;;;;;5067471;28;20059;-72
2022/05/02 07:27:27;;;;;;;7.95;6.32;;;12.90;99.90;;;;;;5074050;28;20127;-72
2022/05/02 07:29:57;;;;;;;8.40;5.88;;;13.10;99.90;;;;;;5092451;28;20047;-72
2022/05/02 07:32:24;;;;;;;12.10;6.13;;;13.20;99.90;;;;;;5091537;28;20044;-72
2022/05/02 07:34:54;;;;;;;9.05;6.63;;;13.30;99.90;;;;;;5091266;28;20032;-72
2022/05/02 07:37:23;;;;;;;10.73;6.63;;;13.50;99.90;;;;;;5091030;28;20035;-71
2022/05/02 07:39:50;;;;;;;11.77;6.80;;;13.40;99.90;;;;;;5089751;28;20032;-71
2022/05/02 07:42:18;;;;;;;7.45;6.45;;;13.50;99.90;;;;;;5057562;28;20329;-72
2022/05/02 07:44:46;;;;;;;11.93;6.72;;;13.50;99.90;;;;;;5094666;28;20032;-71
2022/05/02 07:47:15;;;;;;;8.90;6.03;;;13.70;99.90;;;;;;5087374;28;20122;-72
2022/05/02 07:49:50;;;;;;;9.90;6.20;;;13.70;99.90;;;;;;5090747;28;20040;-71
2022/05/02 07:52:21;;;;;;;8.57;6.22;;;13.90;99.90;;;;;;5072787;28;20082;-71
2022/05/02 07:54:49;;;;;;;6.15;5.07;;;13.90;99.90;;;;;;5091452;28;20123;-71
2022/05/02 07:57:15;;;;;;;8.23;5.70;;;14.00;99.90;;;;;;5091367;28;20038;-72
2022/05/02 07:59:42;;;;;;;9.52;6.07;;;14.00;99.90;;;;;;5072930;28;20043;-71
2022/05/02 08:02:09;;;;;;;8.35;6.38;;;14.10;99.90;;;;;;5087503;28;20053;-71
2022/05/02 08:04:38;;;;;;;8.75;6.53;;;14.20;99.90;;;;;;5088189;28;20448;-71
2022/05/02 08:07:24;;;;;;;8.75;6.68;;;14.20;99.90;;;;;;5090322;28;20131;-71
2022/05/02 08:10:22;;;;;;;10.10;6.57;;;14.30;99.90;;;;;;5086709;28;20047;-71
2022/05/02 08:12:55;;;;;;;13.38;6.90;;;14.50;99.90;;;;;;5087462;28;20047;-72
2022/05/02 08:15:25;;;;;;;;;;;14.50;99.90;;;;;;5075391;28;20043;-72
2022/05/02 08:18:09;;;;;;;8.45;5.93;;;14.70;99.90;;;;;;5089044;28;19916;-72
2022/05/02 08:21:05;;;;;;;8.82;5.65;;;14.90;99.90;;;;;;5072645;28;20487;-72
2022/05/02 08:30:05;;;;;;;10.27;6.78;;;15.00;99.90;;;;;;5070768;28;20040;-72
2022/05/02 08:32:38;;;;;;;9.02;5.95;;;15.20;99.90;;;;;;5054950;28;20148;-72
2022/05/02 08:35:18;;;;;;;14.00;6.75;;;15.20;99.90;;;;;;5067804;28;20139;-71
2022/05/02 08:38:09;;;;;;;10.80;6.28;;;15.40;99.90;;;;;;5068595;28;20552;-71
2022/05/02 08:40:58;;;;;;;9.85;6.47;;;15.60;99.90;;;;;;5070670;28;20097;-71
2022/05/02 08:43:45;;;;;;;12.13;6.63;;;15.60;99.90;;;;;;5066643;28;20082;-72
2022/05/02 08:46:51;;;;;;;8.90;5.43;;;15.60;99.90;;;;;;5070340;28;20164;-72
2022/05/02 08:49:36;;;;;;;10.13;6.00;;;15.80;99.90;;;;;;5033546;28;20400;-71
2022/05/02 08:52:39;;;;;;;10.55;6.03;;;15.90;99.90;;;;;;5068854;28;20055;-77
2022/05/02 08:55:20;;;;;;;8.70;5.95;;;15.90;99.90;;;;;;5071975;28;20052;-71
2022/05/02 08:58:01;;;;;;;8.15;6.10;;;15.90;99.90;;;;;;5070978;28;20848;-72
2022/05/02 09:01:23;;;;;;;7.28;5.75;;;16.00;99.90;;;;;;5070016;28;20044;-72
2022/05/02 09:04:07;;;;;;;6.88;5.75;;;16.30;99.90;;;;;;4951471;28;20085;-72
2022/05/02 09:07:03;;;;;;;9.27;5.70;;;16.50;99.90;;;;;;5052603;28;20085;-72
2022/05/02 09:09:44;;;;;;;8.43;6.40;;;16.50;99.90;;;;;;5048566;28;20071;-72
2022/05/02 09:12:43;;;;;;;11.50;6.35;;;16.60;99.90;;;;;;5066044;28;20040;-72
2022/05/02 09:15:46;;;;;;;9.93;5.75;;;16.70;99.90;;;;;;5066685;28;20455;-72
2022/05/02 09:18:28;;;;;;;10.77;6.07;;;16.80;99.90;;;;;;5067168;28;20040;-72
2022/05/02 09:21:10;;;;;;;10.05;5.88;;;17.00;99.90;;;;;;5065493;28;20039;-72
2022/05/02 09:24:15;;;;;;;8.20;6.30;;;17.20;99.90;;;;;;5048323;28;20151;-72
2022/05/02 09:27:10;;;;;;;9.27;6.13;;;17.20;99.90;;;;;;5048261;28;20330;-72
2022/05/02 09:30:01;;;;;;;7.05;5.43;;;17.00;99.90;;;;;;5065469;28;20048;-71
2022/05/02 09:33:17;;;;;;;8.98;5.78;;;17.10;99.90;;;;;;5065082;28;20044;-72
2022/05/02 09:35:54;;;;;;;8.35;5.78;;;17.10;99.90;;;;;;5048382;28;20097;-72
2022/05/02 09:38:29;;;;;;;9.30;5.82;;;17.20;99.90;;;;;;5068067;28;20043;-72
2022/05/02 09:41:00;;;;;;;8.73;5.78;;;17.30;99.90;;;;;;5063391;28;20085;-72
2022/05/02 09:50:15;;;;;;;8.43;6.03;;;17.20;99.90;;;;;;5058464;28;20112;-71
2022/05/02 09:53:22;;;;;;;8.65;6.00;;;16.70;99.90;;;;;;5071532;28;20056;-71
2022/05/02 09:58:44;;;;;;;8.43;5.82;;;16.70;99.90;;;;;;5077796;28;20041;-71
2022/05/02 10:01:20;;;;;;;8.43;5.13;;;16.80;99.90;;;;;;5055162;28;20439;-71
2022/05/02 10:03:58;;;;;;;8.10;4.95;;;17.00;99.90;;;;;;5046810;28;20606;-71
2022/05/02 10:06:42;;;;;;;8.23;5.55;;;17.30;99.90;;;;;;5068994;28;20048;-71
2022/05/02 10:09:40;;;;;;;9.30;5.97;;;17.60;99.90;;;;;;5053480;28;20044;-71
2022/05/02 10:12:21;;;;;;;8.05;5.30;;;17.80;99.90;;;;;;5055199;28;20060;-70
2022/05/02 10:14:52;;;;;;;6.60;4.78;;;18.00;99.90;;;;;;5053500;28;20047;-72
2022/05/02 10:17:24;;;;;;;6.82;4.20;;;18.10;99.90;;;;;;5056618;28;20126;-72
2022/05/02 10:20:13;;;;;;;6.43;4.07;;;18.20;99.90;;;;;;5059286;28;20747;-72
2022/05/02 10:23:04;;;;;;;6.15;3.63;;;18.30;99.90;;;;;;5067394;28;20128;-72
2022/05/02 10:25:36;;;;;;;5.60;3.97;;;18.30;99.80;;;;;;5092477;28;20072;-72
2022/05/02 10:28:41;;;;;;;5.32;3.97;;;18.40;99.20;;;;;;5072212;28;20057;-72
2022/05/02 10:31:19;;;;;;;6.32;4.07;;;18.40;98.00;;;;;;5075421;28;20263;-72
2022/05/02 10:33:53;;;;;;;6.88;3.70;;;18.40;95.70;;;;;;5091573;28;20059;-72
2022/05/02 10:36:37;;;;;;;7.03;3.92;;;18.40;96.30;;;;;;5073175;28;20032;-72
2022/05/02 10:39:38;;;;;;;6.47;3.72;;;18.50;95.50;;;;;;5073927;28;20075;-72
2022/05/02 10:42:06;;;;;;;6.78;4.25;;;18.50;96.10;;;;;;5093193;28;20044;-72
2022/05/02 10:44:56;;;;;;;6.70;3.95;;;18.50;95.50;;;;;;5059094;28;20040;-73
2022/05/02 10:47:27;;;;;;;6.18;3.92;;;18.50;95.70;;;;;;5072709;28;20052;-73
2022/05/02 10:50:07;;;;;;;6.75;4.03;;;18.30;94.50;;;;;;5071888;28;20040;-72
2022/05/02 10:52:48;;;;;;;6.18;4.38;;;18.20;94.70;;;;;;5092144;28;20052;-72
2022/05/02 10:55:23;;;;;;;7.68;4.68;;;18.10;94.90;;;;;;5091772;28;20385;-73
2022/05/02 10:58:04;;;;;;;6.93;4.50;;;18.00;94.00;;;;;;5092385;28;20032;-73
2022/05/02 11:00:30;;;;;;;6.57;4.47;;;18.10;94.90;;;;;;5071785;28;20494;-72
2022/05/02 11:03:20;;;;;;;7.30;4.60;;;18.30;95.80;;;;;;5087278;28;20048;-73
2022/05/02 11:06:08;;;;;;;9.18;4.93;;;18.30;94.70;;;;;;5071241;28;20052;-73
2022/05/02 11:08:50;;;;;;;8.18;5.47;;;18.40;95.40;;;;;;5071902;28;20060;-72
2022/05/02 11:11:46;;;;;;;7.55;4.55;;;18.60;94.80;;;;;;5074040;28;20036;-73
2022/05/02 11:14:23;;;;;;;6.35;4.28;;;18.60;95.30;;;;;;5086776;28;20052;-73
2022/05/02 11:17:11;;;;;;;7.43;4.85;;;18.60;95.00;;;;;;5090749;28;20036;-72
2022/05/02 11:22:34;;;;;;;6.80;4.60;;;18.80;94.90;;;;;;5091726;28;20138;-73
2022/05/02 11:25:06;;;;;;;5.55;4.25;;;18.80;94.60;;;;;;5091672;28;20088;-73
2022/05/02 11:27:42;;;;;;;6.15;4.40;;;18.60;93.40;;;;;;5092451;28;20437;-73
2022/05/02 11:30:12;;;;;;;6.55;4.80;;;18.50;94.70;;;;;;5087856;28;20123;-73
2022/05/02 11:33:16;;;;;;;6.72;4.35;;;18.50;95.40;;;;;;5073216;28;20040;-73
2022/05/02 11:35:47;;;;;;;6.90;4.50;;;18.60;94.40;;;;;;5093491;28;20498;-72
2022/05/02 11:38:48;;;;;;;7.18;4.60;;;18.70;95.20;;;;;;5093737;28;20043;-72
2022/05/02 11:41:19;;;;;;;6.93;4.70;;;18.80;94.60;;;;;;5074951;28;20094;-73
2022/05/02 11:43:46;;;;;;;8.77;4.25;;;18.90;94.30;;;;;;5096662;28;20075;-73
2022/05/02 11:46:24;;;;;;;7.72;4.40;;;18.90;95.00;;;;;;5092723;28;20119;-72
2022/05/02 11:49:29;;;;;;;7.88;3.83;;;18.60;93.80;;;;;;5077827;28;20061;-72
2022/05/02 11:51:58;;;;;;;23.05;4.95;;;18.20;93.50;;;;;;5072100;28;20059;-72
2022/05/02 11:54:27;;;;;;;6.00;3.70;;;17.80;93.00;;;;;;5084903;28;20075;-71
2022/05/02 11:56:59;;;;;;;5.05;3.83;;;17.50;93.50;;;;;;5086355;28;20044;-73
2022/05/02 11:59:41;;;;;;;5.35;3.72;;;17.60;94.40;;;;;;5095031;28;20064;-72
2022/05/02 12:02:16;;;;;;;5.10;3.78;;;17.90;94.50;;;;;;5086305;28;20390;-72
2022/05/02 12:04:47;;;;;;;5.97;4.05;;;18.00;93.70;;;;;;5084201;28;20071;-73
2022/05/02 12:07:14;;;;;;;5.47;3.80;;;18.10;93.30;;;;;;5088055;28;20040;-72
2022/05/02 12:09:41;;;;;;;6.43;4.35;;;18.40;93.30;;;;;;5087072;28;20065;-72
2022/05/02 12:12:08;;;;;;;7.28;4.30;;;18.60;93.60;;;;;;5091602;28;20032;-72
2022/05/02 12:14:34;;;;;;;8.77;4.05;;;18.70;92.80;;;;;;5087740;28;20475;-72
2022/05/02 12:17:10;;;;;;;7.93;4.10;;;18.80;92.60;;;;;;5091703;28;20086;-73
2022/05/02 12:19:37;;;;;;;5.63;4.07;;;18.70;92.10;;;;;;5069384;28;20040;-72
2022/05/02 12:22:28;;;;;;;8.40;4.00;;;18.60;93.20;;;;;;5070637;28;20093;-70
2022/05/02 12:25:04;;;;;;;7.88;4.68;;;18.70;93.00;;;;;;5084559;28;20145;-72
2022/05/02 12:27:31;;;;;;;5.50;4.13;;;18.80;92.80;;;;;;5076329;28;20044;-71
2022/05/02 12:30:01;;;;;;;6.53;4.53;;;18.70;93.60;;;;;;5084068;28;20044;-71
2022/05/02 12:32:31;;;;;;;4.95;4.20;;;18.70;93.70;;;;;;5065750;28;20042;-71
2022/05/02 12:34:58;;;;;;;8.02;4.65;;;18.50;94.00;;;;;;5082761;28;20054;-71
2022/05/02 12:37:36;;;;;;;6.97;4.68;;;18.40;94.20;;;;;;5085394;28;20548;-71
2022/05/02 12:40:14;;;;;;;6.30;4.57;;;18.30;94.10;;;;;;5075076;28;20264;-71
2022/05/02 12:42:50;;;;;;;8.35;5.00;;;18.10;93.50;;;;;;5081873;28;20051;-71
2022/05/02 12:45:18;;;;;;;5.32;4.43;;;18.10;94.80;;;;;;5087797;28;20151;-71
2022/05/02 12:47:56;;;;;;;7.25;4.50;;;18.30;95.10;;;;;;5067595;28;20040;-71
2022/05/02 12:50:25;;;;;;;8.52;4.53;;;18.40;94.80;;;;;;5086985;28;20063;-71
2022/05/02 12:52:56;;;;;;;8.07;4.50;;;18.50;95.20;;;;;;5087356;28;20043;-71
2022/05/02 12:55:30;;;;;;;8.55;4.43;;;18.70;95.50;;;;;;5077026;28;20050;-72
2022/05/02 13:00:45;;;;;;;8.98;4.65;;;18.70;93.90;;;;;;5084935;28;20047;-70
2022/05/02 13:03:15;;;;;;;6.60;4.45;;;18.50;95.60;;;;;;5088453;28;20042;-71
2022/05/02 13:05:46;;;;;;;7.90;5.00;;;18.30;94.90;;;;;;5070675;28;20039;-70
2022/05/02 13:08:19;;;;;;;10.98;4.45;;;18.20;96.20;;;;;;5087893;28;20040;-70
2022/05/02 13:10:46;;;;;;;;;;;18.10;96.30;;;;;;5067945;28;20040;-70
2022/05/02 13:13:17;;;;;;;7.20;3.95;;;18.20;96.10;;;;;;5084336;28;19919;-70
2022/05/02 13:15:51;;;;;;;6.32;3.85;;;18.20;96.10;;;;;;5065755;28;20036;-71
2022/05/02 13:18:18;;;;;;;6.05;3.63;;;18.10;95.50;;;;;;5062496;28;20075;-70
2022/05/02 13:21:00;;;;;;;6.75;3.92;;;18.20;96.20;;;;;;5065581;28;20085;-70
2022/05/02 13:23:57;;;;;;;8.60;3.65;;;18.50;96.60;;;;;;5066671;28;20077;-69
2022/05/02 13:26:37;;;;;;;7.85;3.47;;;18.60;95.80;;;;;;5064814;28;20054;-69
2022/05/02 13:29:18;;;;;;;5.38;3.40;;;18.70;96.10;;;;;;5087303;28;20085;-69
2022/05/02 13:31:44;;;;;;;5.75;3.67;;;18.80;96.10;;;;;;5086721;28;20123;-69
2022/05/02 13:34:32;;;;;;;5.32;3.38;;;18.90;96.30;;;;;;5066457;28;20422;-69
2022/05/02 13:37:10;;;;;;;9.07;3.42;;;18.80;94.80;;;;;;5065526;28;20054;-69
2022/05/02 13:40:02;;;;;;;4.68;3.47;;;18.80;94.70;;;;;;5067034;28;20398;-70
2022/05/02 13:42:50;;;;;;;5.90;2.85;;;18.80;94.70;;;;;;5079800;28;20046;-69
2022/05/02 13:45:41;;;;;;;5.90;3.17;;;18.70;95.30;;;;;;5082298;28;20541;-71
2022/05/02 13:48:21;;;;;;;4.78;2.80;;;18.80;95.30;;;;;;5069843;28;20056;-69
2022/05/02 13:51:05;;;;;;;7.20;2.88;;;18.80;94.50;;;;;;5067446;28;20036;-69
2022/05/02 13:53:43;;;;;;;4.50;2.72;;;18.90;94.80;;;;;;5071187;28;20052;-69